Time,TemperatureF,DewpointF,PressureIn,WindDirection,WindDirectionDegrees,WindSpeedMPH,WindSpeedGustMPH,Humidity,HourlyPrecipIn,Conditions,Clouds,dailyrainin,SoftwareType,DateUTC
2013-09-10 00:14:00,72.2,69.0,30.15,South,182,2.0,6.0,88,0.00,,,0.00,weatherlink.com 1.10,2013-09-10 04:14:00,
2013-09-10 00:29:00,72.2,69.0,30.15,SSE,162,1.0,4.0,88,0.00,,,0.00,weatherlink.com 1.10,2013-09-10 04:29:00,
2013-09-10 00:44:00,72.1,69.0,30.15,SW,214,1.0,5.0,89,0.00,,,0.00,weatherlink.com 1.10,2013-09-10 04:44:00,
2013-09-10 00:59:00,72.0,69.0,30.15,SSE,159,1.0,4.0,89,0.00,,,0.00,weatherlink.com 1.10,2013-09-10 04:59:00,
2013-09-10 01:14:00,71.9,69.0,30.15,SSE,152,2.0,5.0,89,0.00,,,0.00,weatherlink.com 1.10,2013-09-10 05:14:00,
2013-09-10 01:29:00,71.9,69.0,30.14,SSW,200,1.0,7.0,90,0.00,,,0.00,weatherlink.com 1.10,2013-09-10 05:29:00,
2013-09-10 01:44:00,71.8,69.0,30.14,SSE,161,2.0,6.0,90,0.00,,,0.00,weatherlink.com 1.10,2013-09-10 05:44:00,
2013-09-10 01:59:00,71.6,69.0,30.14,SW,214,1.0,6.0,91,0.00,,,0.00,weatherlink.com 1.10,2013-09-10 05:59:00,
2013-09-10 02:14:00,71.6,69.0,30.14,SW,223,2.0,12.0,91,0.00,,,0.00,weatherlink.com 1.10,2013-09-10 06:14:00,
2013-09-10 02:29:00,71.5,69.0,30.15,SW,227,0.0,5.0,92,0.00,,,0.00,weatherlink.com 1.10,2013-09-10 06:29:00,
2013-09-10 02:44:00,71.3,69.0,30.14,South,175,1.0,4.0,92,0.00,,,0.00,weatherlink.com 1.10,2013-09-10 06:44:00,
2013-09-10 02:59:00,71.4,69.0,30.15,SSW,207,4.0,6.0,93,0.00,,,0.00,weatherlink.com 1.10,2013-09-10 06:59:00,
2013-09-10 03:14:00,71.5,69.0,30.14,SSW,194,2.0,6.0,93,0.00,,,0.00,weatherlink.com 1.10,2013-09-10 07:14:00,
2013-09-10 03:29:00,71.5,69.0,30.14,SSW,209,3.0,6.0,93,0.00,,,0.00,weatherlink.com 1.10,2013-09-10 07:29:00,
2013-09-10 03:44:00,71.6,70.0,30.14,SSW,207,1.0,8.0,93,0.00,,,0.00,weatherlink.com 1.10,2013-09-10 07:44:00,
2013-09-10 03:59:00,71.6,70.0,30.14,SSW,202,2.0,10.0,93,0.00,,,0.00,weatherlink.com 1.10,2013-09-10 07:59:00,
2013-09-10 04:14:00,71.6,70.0,30.14,SSW,192,3.0,7.0,93,0.00,,,0.00,weatherlink.com 1.10,2013-09-10 08:14:00,
2013-09-10 04:29:00,71.5,69.0,30.14,South,191,2.0,6.0,93,0.00,,,0.00,weatherlink.com 1.10,2013-09-10 08:29:00,
2013-09-10 04:44:00,71.5,69.0,30.14,South,170,2.0,8.0,93,0.00,,,0.00,weatherlink.com 1.10,2013-09-10 08:44:00,
2013-09-10 04:59:00,71.5,69.0,30.13,SSE,155,9.0,9.0,93,0.00,,,0.00,weatherlink.com 1.10,2013-09-10 08:59:00,
2013-09-10 05:14:00,71.4,69.0,30.14,WSW,237,4.0,8.0,93,0.00,,,0.00,weatherlink.com 1.10,2013-09-10 09:14:00,
2013-09-10 05:29:00,71.3,69.0,30.14,SSW,202,3.0,6.0,93,0.00,,,0.00,weatherlink.com 1.10,2013-09-10 09:29:00,
2013-09-10 05:44:00,71.3,69.0,30.14,SSE,168,3.0,9.0,93,0.00,,,0.00,weatherlink.com 1.10,2013-09-10 09:44:00,
2013-09-10 05:59:00,71.3,69.0,30.15,SSE,148,1.0,5.0,93,0.00,,,0.00,weatherlink.com 1.10,2013-09-10 09:59:00,
2013-09-10 06:14:00,71.4,69.0,30.15,SW,231,1.0,7.0,93,0.00,,,0.00,weatherlink.com 1.10,2013-09-10 10:14:00,
2013-09-10 06:29:00,71.4,69.0,30.16,South,175,2.0,6.0,93,0.00,,,0.00,weatherlink.com 1.10,2013-09-10 10:29:00,
2013-09-10 06:44:00,71.3,69.0,30.16,SSE,163,3.0,7.0,93,0.00,,,0.00,weatherlink.com 1.10,2013-09-10 10:44:00,
2013-09-10 06:59:00,71.3,69.0,30.16,South,182,2.0,5.0,93,0.00,,,0.00,weatherlink.com 1.10,2013-09-10 10:59:00,
2013-09-10 07:14:00,71.2,69.0,30.16,South,181,2.0,5.0,93,0.00,,,0.00,weatherlink.com 1.10,2013-09-10 11:14:00,
2013-09-10 07:29:00,71.2,69.0,30.17,South,170,0.0,5.0,94,0.00,,,0.00,weatherlink.com 1.10,2013-09-10 11:29:00,
2013-09-10 07:44:00,71.2,69.0,30.17,South,178,2.0,6.0,94,0.00,,,0.00,weatherlink.com 1.10,2013-09-10 11:44:00,
2013-09-10 07:59:00,71.4,70.0,30.16,SSE,165,1.0,6.0,94,0.00,,,0.00,weatherlink.com 1.10,2013-09-10 11:59:00,
2013-09-10 08:14:00,71.7,70.0,30.16,SSW,193,1.0,5.0,94,0.00,,,0.00,weatherlink.com 1.10,2013-09-10 12:14:00,
2013-09-10 08:29:00,72.1,70.0,30.16,SSW,194,2.0,6.0,93,0.00,,,0.00,weatherlink.com 1.10,2013-09-10 12:29:00,
2013-09-10 08:44:00,72.4,70.0,30.16,SSW,200,3.0,8.0,92,0.00,,,0.00,weatherlink.com 1.10,2013-09-10 12:44:00,
2013-09-10 08:59:00,73.0,71.0,30.16,South,176,2.0,5.0,92,0.00,,,0.00,weatherlink.com 1.10,2013-09-10 12:59:00,
2013-09-10 09:14:00,73.5,71.0,30.17,South,184,1.0,7.0,90,0.00,,,0.00,weatherlink.com 1.10,2013-09-10 13:14:00,
2013-09-10 09:29:00,74.1,71.0,30.17,West,269,3.0,6.0,89,0.00,,,0.00,weatherlink.com 1.10,2013-09-10 13:29:00,
2013-09-10 09:44:00,74.8,71.0,30.17,SSW,192,0.0,5.0,88,0.00,,,0.00,weatherlink.com 1.10,2013-09-10 13:44:00,
2013-09-10 09:59:00,75.9,71.0,30.18,WNW,290,5.0,5.0,85,0.00,,,0.00,weatherlink.com 1.10,2013-09-10 13:59:00,
2013-09-10 10:14:00,76.8,71.0,30.18,WNW,283,2.0,4.0,83,0.00,,,0.00,weatherlink.com 1.10,2013-09-10 14:14:00,
2013-09-10 10:29:00,77.6,72.0,30.18,SSW,192,1.0,3.0,82,0.00,,,0.00,weatherlink.com 1.10,2013-09-10 14:29:00,
2013-09-10 10:44:00,78.5,72.0,30.18,West,273,0.0,4.0,79,0.00,,,0.00,weatherlink.com 1.10,2013-09-10 14:44:00,
2013-09-10 11:00:00,79.2,72.0,30.18,South,187,0.0,6.0,78,0.00,,,0.00,weatherlink.com 1.10,2013-09-10 15:00:00,
2013-09-10 11:15:00,79.9,71.0,30.18,SW,217,0.0,4.0,75,0.00,,,0.00,weatherlink.com 1.10,2013-09-10 15:15:00,
2013-09-10 11:30:00,80.9,72.0,30.17,West,273,3.0,8.0,74,0.00,,,0.00,weatherlink.com 1.10,2013-09-10 15:30:00,
2013-09-10 11:45:00,81.9,72.0,30.16,West,269,1.0,4.0,73,0.00,,,0.00,weatherlink.com 1.10,2013-09-10 15:45:00,
2013-09-10 12:00:00,83.0,72.0,30.16,WNW,296,0.0,3.0,70,0.00,,,0.00,weatherlink.com 1.10,2013-09-10 16:00:00,
2013-09-10 12:15:00,83.8,72.0,30.16,West,273,0.0,5.0,68,0.00,,,0.00,weatherlink.com 1.10,2013-09-10 16:15:00,
2013-09-10 12:30:00,84.4,74.0,30.15,SW,214,0.0,5.0,70,0.00,,,0.00,weatherlink.com 1.10,2013-09-10 16:30:00,
2013-09-10 12:45:00,85.4,74.0,30.15,WSW,240,2.0,3.0,68,0.00,,,0.00,weatherlink.com 1.10,2013-09-10 16:45:00,
2013-09-10 13:00:00,86.7,74.0,30.15,NW,317,1.0,5.0,66,0.00,,,0.00,weatherlink.com 1.10,2013-09-10 17:00:00,
2013-09-10 13:15:00,87.4,74.0,30.14,SSE,149,1.0,4.0,64,0.00,,,0.00,weatherlink.com 1.10,2013-09-10 17:15:00,
2013-09-10 13:30:00,87.7,74.0,30.14,South,188,2.0,4.0,63,0.00,,,0.00,weatherlink.com 1.10,2013-09-10 17:30:00,
2013-09-10 13:45:00,87.8,74.0,30.14,South,179,4.0,4.0,63,0.00,,,0.00,weatherlink.com 1.10,2013-09-10 17:45:00,
2013-09-10 14:00:00,88.4,74.0,30.14,West,271,3.0,4.0,63,0.00,,,0.00,weatherlink.com 1.10,2013-09-10 18:00:00,
2013-09-10 14:15:00,89.1,73.0,30.13,SSW,195,1.0,7.0,60,0.00,,,0.00,weatherlink.com 1.10,2013-09-10 18:15:00,
2013-09-10 14:30:00,89.6,74.0,30.12,SSE,161,1.0,6.0,60,0.00,,,0.00,weatherlink.com 1.10,2013-09-10 18:30:00,
2013-09-10 14:45:00,89.0,74.0,30.12,SSW,196,4.0,7.0,62,0.00,,,0.00,weatherlink.com 1.10,2013-09-10 18:45:00,
2013-09-10 15:00:00,88.7,75.0,30.11,WSW,248,0.0,7.0,64,0.00,,,0.00,weatherlink.com 1.10,2013-09-10 19:00:00,
2013-09-10 15:15:00,89.6,75.0,30.12,SSW,207,1.0,7.0,62,0.00,,,0.00,weatherlink.com 1.10,2013-09-10 19:15:00,
2013-09-10 15:30:00,89.4,74.0,30.11,SSE,165,3.0,9.0,61,0.00,,,0.00,weatherlink.com 1.10,2013-09-10 19:30:00,
2013-09-10 15:45:00,89.1,74.0,30.11,SSW,198,4.0,7.0,62,0.00,,,0.00,weatherlink.com 1.10,2013-09-10 19:45:00,
2013-09-10 16:00:00,88.5,74.0,30.10,SSE,167,4.0,4.0,62,0.00,,,0.00,weatherlink.com 1.10,2013-09-10 20:00:00,
2013-09-10 16:15:00,88.5,73.0,30.10,South,173,4.0,7.0,61,0.00,,,0.00,weatherlink.com 1.10,2013-09-10 20:15:00,
2013-09-10 16:30:00,88.2,74.0,30.10,South,169,5.0,7.0,62,0.00,,,0.00,weatherlink.com 1.10,2013-09-10 20:30:00,
2013-09-10 16:45:00,88.3,73.0,30.10,South,187,4.0,7.0,61,0.00,,,0.00,weatherlink.com 1.10,2013-09-10 20:45:00,
2013-09-10 17:00:00,88.3,74.0,30.09,SE,139,3.0,6.0,62,0.00,,,0.00,weatherlink.com 1.10,2013-09-10 21:00:00,
2013-09-10 17:15:00,88.0,74.0,30.09,SSW,207,2.0,7.0,63,0.00,,,0.00,weatherlink.com 1.10,2013-09-10 21:15:00,
2013-09-10 17:30:00,88.0,74.0,30.10,SSE,159,3.0,7.0,63,0.00,,,0.00,weatherlink.com 1.10,2013-09-10 21:30:00,
2013-09-10 17:45:00,87.5,74.0,30.09,SSW,192,3.0,7.0,65,0.00,,,0.00,weatherlink.com 1.10,2013-09-10 21:45:00,
2013-09-10 18:00:00,87.2,74.0,30.10,SW,222,1.0,8.0,64,0.00,,,0.00,weatherlink.com 1.10,2013-09-10 22:00:00,
2013-09-10 18:15:00,86.8,73.0,30.10,South,183,1.0,7.0,64,0.00,,,0.00,weatherlink.com 1.10,2013-09-10 22:15:00,
2013-09-10 18:30:00,86.1,73.0,30.09,SW,225,2.0,7.0,65,0.00,,,0.00,weatherlink.com 1.10,2013-09-10 22:30:00,
2013-09-10 18:45:00,85.6,73.0,30.10,SW,221,1.0,4.0,66,0.00,,,0.00,weatherlink.com 1.10,2013-09-10 22:45:00,
2013-09-10 19:00:00,85.3,73.0,30.10,SW,216,3.0,5.0,67,0.00,,,0.00,weatherlink.com 1.10,2013-09-10 23:00:00,
2013-09-10 19:15:00,84.7,73.0,30.10,SSW,198,0.0,6.0,69,0.00,,,0.00,weatherlink.com 1.10,2013-09-10 23:15:00,
2013-09-10 19:30:00,84.1,74.0,30.10,SSW,205,5.0,7.0,71,0.00,,,0.00,weatherlink.com 1.10,2013-09-10 23:30:00,
2013-09-10 19:45:00,83.6,74.0,30.10,South,175,2.0,5.0,72,0.00,,,0.00,weatherlink.com 1.10,2013-09-10 23:45:00,
2013-09-10 20:00:00,83.2,74.0,30.10,SSE,161,1.0,4.0,73,0.00,,,0.00,weatherlink.com 1.10,2013-09-11 00:00:00,
2013-09-10 20:15:00,82.8,74.0,30.11,South,169,0.0,2.0,74,0.00,,,0.00,weatherlink.com 1.10,2013-09-11 00:15:00,
2013-09-10 20:30:00,82.4,74.0,30.11,SSE,164,0.0,2.0,75,0.00,,,0.00,weatherlink.com 1.10,2013-09-11 00:30:00,
2013-09-10 20:45:00,81.9,74.0,30.12,SSE,167,0.0,2.0,76,0.00,,,0.00,weatherlink.com 1.10,2013-09-11 00:45:00,
2013-09-10 21:00:00,81.6,74.0,30.12,SSE,168,1.0,2.0,77,0.00,,,0.00,weatherlink.com 1.10,2013-09-11 01:00:00,
2013-09-10 21:30:00,81.1,74.0,30.13,SSE,166,1.0,3.0,79,0.00,,,0.00,weatherlink.com 1.10,2013-09-11 01:30:00,
2013-09-10 21:45:00,80.8,74.0,30.14,SSE,157,2.0,3.0,80,0.00,,,0.00,weatherlink.com 1.10,2013-09-11 01:45:00,
2013-09-10 22:01:00,80.5,74.0,30.14,South,169,0.0,2.0,81,0.00,,,0.00,weatherlink.com 1.10,2013-09-11 02:01:00,
2013-09-10 22:16:00,80.3,74.0,30.14,South,169,1.0,3.0,81,0.00,,,0.00,weatherlink.com 1.10,2013-09-11 02:16:00,
2013-09-10 22:31:00,80.2,74.0,30.14,SSE,167,2.0,3.0,82,0.00,,,0.00,weatherlink.com 1.10,2013-09-11 02:31:00,
2013-09-10 22:46:00,79.8,74.0,30.15,South,170,0.0,4.0,82,0.00,,,0.00,weatherlink.com 1.10,2013-09-11 02:46:00,
2013-09-10 23:01:00,79.7,74.0,30.15,SSW,195,1.0,4.0,83,0.00,,,0.00,weatherlink.com 1.10,2013-09-11 03:01:00,
2013-09-10 23:16:00,79.4,74.0,30.15,South,182,2.0,4.0,83,0.00,,,0.00,weatherlink.com 1.10,2013-09-11 03:16:00,
2013-09-10 23:31:00,79.3,74.0,30.15,South,169,1.0,3.0,84,0.00,,,0.00,weatherlink.com 1.10,2013-09-11 03:31:00,
2013-09-10 23:46:00,79.1,74.0,30.15,SSW,199,2.0,5.0,84,0.00,,,0.00,weatherlink.com 1.10,2013-09-11 03:46:00,